createdAt,value
2023-08-15T00:00:42.589Z,12.70
2023-08-15T00:04:43.755Z,9.73
2023-08-15T00:08:45.347Z,9.57
2023-08-15T00:12:46.863Z,8.17
2023-08-15T00:16:48.003Z,9.00
2023-08-15T00:20:49.182Z,8.80
2023-08-15T00:24:50.249Z,9.87
2023-08-15T00:28:52.002Z,9.20
2023-08-15T00:32:53.242Z,7.77
2023-08-15T00:36:54.462Z,8.67
2023-08-15T00:40:55.769Z,9.77
2023-08-15T00:44:57.646Z,10.00
2023-08-15T00:49:00.374Z,10.90
2023-08-15T00:53:03.450Z,10.20
2023-08-15T00:57:06.776Z,11.90
2023-08-15T01:01:11.073Z,13.10
2023-08-15T01:05:16.540Z,11.63
2023-08-15T01:09:17.572Z,12.40
2023-08-15T01:13:31.493Z,12.77
2023-08-15T01:17:36.345Z,13.57
2023-08-15T01:21:41.185Z,15.13
2023-08-15T01:25:43.915Z,14.67
2023-08-15T01:29:44.904Z,15.40
2023-08-15T01:34:01.999Z,14.03
2023-08-15T01:38:09.964Z,13.47
2023-08-15T01:42:11.529Z,13.33
2023-08-15T01:46:14.057Z,14.60
2023-08-15T01:50:15.086Z,14.10
2023-08-15T01:54:16.354Z,14.73
2023-08-15T01:58:17.512Z,14.47
2023-08-15T02:02:18.699Z,14.27
2023-08-15T02:06:19.688Z,15.10
2023-08-15T02:10:21.237Z,14.73
2023-08-15T02:14:22.429Z,15.83
2023-08-15T02:18:26.820Z,16.17
2023-08-15T02:22:27.962Z,16.50
2023-08-15T02:26:29.115Z,17.40
2023-08-15T02:30:32.254Z,16.93
2023-08-15T02:34:33.536Z,17.87
2023-08-15T02:38:35.476Z,16.10
2023-08-15T02:42:36.652Z,17.00
2023-08-15T02:46:38.193Z,16.63
2023-08-15T02:50:39.308Z,17.43
2023-08-15T02:54:40.466Z,14.80
2023-08-15T02:58:42.180Z,15.60
2023-08-15T03:02:43.463Z,15.07
2023-08-15T03:06:44.792Z,14.60
2023-08-15T03:10:45.952Z,13.50
2023-08-15T03:14:47.120Z,14.00
2023-08-15T03:18:48.488Z,14.73
2023-08-15T03:22:49.511Z,14.37
2023-08-15T03:26:50.796Z,15.97
2023-08-15T03:30:52.477Z,15.90
2023-08-15T03:34:53.750Z,17.83
2023-08-15T03:38:55.121Z,29.93
2023-08-15T03:42:56.299Z,25.93
2023-08-15T03:46:57.413Z,36.77
2023-08-15T03:51:00.758Z,32.80
2023-08-15T03:55:02.416Z,30.33
2023-08-15T03:59:03.662Z,38.80
2023-08-15T04:03:05.237Z,40.57
2023-08-15T04:07:06.403Z,44.27
2023-08-15T04:11:07.554Z,42.97
2023-08-15T04:15:09.142Z,47.20
2023-08-15T04:19:10.166Z,25.60
2023-08-15T04:23:11.423Z,16.87
2023-08-15T04:27:12.987Z,19.73
2023-08-15T04:31:14.583Z,15.93
2023-08-15T04:35:15.980Z,12.33
2023-08-15T04:39:18.956Z,8.37
2023-08-15T04:43:20.380Z,7.00
2023-08-15T04:47:21.690Z,4.50
2023-08-15T04:51:23.073Z,7.33
2023-08-15T04:55:24.358Z,3.40
2023-08-15T04:59:25.667Z,30.03
2023-08-15T05:03:26.849Z,4.87
2023-08-15T05:07:27.833Z,4.63
2023-08-15T05:11:29.029Z,3.57
2023-08-15T05:15:30.328Z,4.93
2023-08-15T05:19:31.548Z,3.77
2023-08-15T05:23:32.636Z,4.20
2023-08-15T05:27:33.979Z,3.67
2023-08-15T05:31:35.163Z,3.87
2023-08-15T05:35:36.203Z,4.83
2023-08-15T05:39:37.479Z,4.43
2023-08-15T05:43:39.186Z,4.97
2023-08-15T05:47:40.629Z,5.20
2023-08-15T05:51:41.920Z,4.10
2023-08-15T05:55:45.970Z,2.90
2023-08-15T05:59:47.177Z,3.40
2023-08-15T06:03:53.009Z,3.93
2023-08-15T06:07:51.249Z,7.07
2023-08-15T06:11:52.461Z,3.73
2023-08-15T06:15:53.519Z,3.00
2023-08-15T06:19:54.934Z,2.40
2023-08-15T06:23:55.989Z,3.27
2023-08-15T06:27:57.179Z,2.53
2023-08-15T06:31:59.210Z,3.30
2023-08-15T06:36:00.379Z,6.37
2023-08-15T06:40:01.664Z,2.43
2023-08-15T06:44:02.987Z,4.40
2023-08-15T06:48:06.022Z,2.97
2023-08-15T06:52:10.200Z,2.40
2023-08-15T06:56:11.777Z,6.43
2023-08-15T07:00:14.025Z,2.70
2023-08-15T07:04:15.058Z,1.60
2023-08-15T07:08:16.766Z,3.00
2023-08-15T07:12:19.062Z,1.50
2023-08-15T07:16:21.825Z,1.63
2023-08-15T07:20:23.054Z,2.13
2023-08-15T07:24:24.099Z,1.60
2023-08-15T07:28:25.297Z,3.30
2023-08-15T07:32:29.562Z,1.47
2023-08-15T07:36:30.802Z,2.43
2023-08-15T07:40:32.092Z,2.23
2023-08-15T07:44:33.162Z,2.43
2023-08-15T07:48:34.243Z,2.70
2023-08-15T07:52:35.484Z,2.13
2023-08-15T07:56:36.767Z,7.27
2023-08-15T08:00:37.848Z,2.30
2023-08-15T08:04:40.955Z,2.40
2023-08-15T08:08:42.401Z,4.27
2023-08-15T08:12:43.718Z,1.90
2023-08-15T08:16:45.287Z,2.10
2023-08-15T08:20:46.663Z,4.53
2023-08-15T08:24:52.863Z,2.83
2023-08-15T08:28:54.147Z,2.53
2023-08-15T08:32:55.281Z,2.07
2023-08-15T08:36:56.516Z,3.13
2023-08-15T08:40:58.210Z,3.17
2023-08-15T08:45:00.787Z,2.50
2023-08-15T08:49:04.048Z,4.27
2023-08-15T08:53:05.651Z,4.23
2023-08-15T08:57:07.859Z,3.27
2023-08-15T09:01:10.170Z,3.03
2023-08-15T09:05:12.742Z,2.83
2023-08-15T09:09:13.828Z,5.50
2023-08-15T09:13:18.870Z,2.70
2023-08-15T09:17:24.213Z,3.17
2023-08-15T09:21:27.832Z,2.60
2023-08-15T09:25:30.525Z,3.00
2023-08-15T09:29:34.645Z,2.90
2023-08-15T09:33:38.210Z,3.93
2023-08-15T09:37:44.935Z,3.63
2023-08-15T09:41:48.798Z,3.37
2023-08-15T09:45:50.058Z,2.60
2023-08-15T09:49:52.848Z,3.47
2023-08-15T09:53:54.457Z,4.13
2023-08-15T09:57:55.639Z,3.03
2023-08-15T10:01:58.985Z,5.03
2023-08-15T10:06:01.846Z,2.40
2023-08-15T10:10:04.573Z,7.57
2023-08-15T10:14:07.794Z,2.83
2023-08-15T10:18:11.277Z,2.70
2023-08-15T10:22:16.197Z,2.30
2023-08-15T10:26:17.932Z,2.10
2023-08-15T10:30:35.382Z,2.80
2023-08-15T10:34:36.638Z,3.03
2023-08-15T10:38:44.162Z,3.43
2023-08-15T10:43:01.641Z,2.70
2023-08-15T10:47:06.830Z,3.83
2023-08-15T10:51:26.116Z,3.30
2023-08-15T10:55:28.799Z,3.90
2023-08-15T10:59:30.090Z,3.17
2023-08-15T11:03:32.606Z,4.97
2023-08-15T11:07:33.742Z,2.83
2023-08-15T11:11:34.830Z,5.70
2023-08-15T11:15:36.054Z,3.87
2023-08-15T11:19:37.306Z,4.50
2023-08-15T11:23:39.464Z,5.53
2023-08-15T11:27:41.749Z,3.83
2023-08-15T11:31:43.192Z,4.97
2023-08-15T11:35:47.262Z,4.53
2023-08-15T11:39:53.079Z,4.10
2023-08-15T11:43:54.317Z,6.00
2023-08-15T11:47:58.508Z,7.63
2023-08-15T11:52:03.742Z,6.53
2023-08-15T11:56:04.803Z,7.13
2023-08-15T12:00:06.830Z,7.93
2023-08-15T12:04:08.189Z,8.40
2023-08-15T12:08:09.640Z,7.77
2023-08-15T12:12:20.122Z,9.07
2023-08-15T12:16:21.759Z,8.73
2023-08-15T12:20:22.968Z,7.00
2023-08-15T12:24:24.114Z,8.67
2023-08-15T12:28:25.352Z,8.87
2023-08-15T12:32:28.408Z,7.53
2023-08-15T12:36:29.715Z,6.20
2023-08-15T12:40:31.851Z,7.53
2023-08-15T12:44:32.999Z,6.83
2023-08-15T12:48:34.007Z,7.63
2023-08-15T12:52:35.342Z,6.77
2023-08-15T12:56:36.829Z,6.13
2023-08-15T13:00:40.096Z,6.53
2023-08-15T13:04:41.480Z,7.17
2023-08-15T13:08:42.489Z,8.60
2023-08-15T13:12:43.626Z,8.00
2023-08-15T13:16:44.790Z,8.13
2023-08-15T13:20:46.101Z,11.63
2023-08-15T13:24:47.410Z,19.37
2023-08-15T13:28:49.236Z,13.70
2023-08-15T13:32:50.444Z,12.70
2023-08-15T13:36:51.569Z,12.10
2023-08-15T13:40:52.634Z,14.67
2023-08-15T13:44:53.784Z,14.77
2023-08-15T13:48:55.078Z,15.23
2023-08-15T13:52:56.114Z,14.97
2023-08-15T13:56:57.447Z,14.90
2023-08-15T14:00:58.679Z,18.33
2023-08-15T14:04:59.836Z,15.67
2023-08-15T14:09:00.919Z,14.97
2023-08-15T14:13:02.532Z,13.30
2023-08-15T14:17:03.654Z,12.83
2023-08-15T14:21:04.826Z,10.40
2023-08-15T14:25:07.289Z,8.40
2023-08-15T14:29:08.330Z,10.23
2023-08-15T14:33:10.254Z,10.63
2023-08-15T14:37:11.382Z,9.77
2023-08-15T14:41:12.420Z,10.13
2023-08-15T14:45:13.586Z,14.13
2023-08-15T14:49:15.103Z,9.43
2023-08-15T14:53:17.009Z,11.20
2023-08-15T14:57:18.640Z,8.07
2023-08-15T15:01:20.294Z,6.60
2023-08-15T15:05:23.203Z,7.23
2023-08-15T15:09:24.382Z,6.33
2023-08-15T15:13:25.441Z,6.87
2023-08-15T15:17:27.008Z,6.33
2023-08-15T15:21:28.290Z,6.83
2023-08-15T15:25:29.461Z,8.10
2023-08-15T15:29:30.980Z,6.20
2023-08-15T15:33:32.042Z,4.73
2023-08-15T15:37:33.293Z,5.03
2023-08-15T15:41:34.369Z,4.07
2023-08-15T15:45:36.989Z,4.57
2023-08-15T15:49:38.070Z,4.03
2023-08-15T15:53:39.164Z,6.27
2023-08-15T15:57:40.284Z,4.23
2023-08-15T16:01:41.474Z,7.30
2023-08-15T16:05:42.632Z,5.13
2023-08-15T16:09:45.433Z,9.40
2023-08-15T16:13:46.491Z,4.97
2023-08-15T16:17:47.639Z,7.83
2023-08-15T16:21:49.014Z,5.63
2023-08-15T16:25:50.840Z,5.67
2023-08-15T16:29:54.533Z,5.93
2023-08-15T16:33:55.077Z,9.73
2023-08-15T16:37:56.143Z,5.07
2023-08-15T16:41:57.216Z,4.17
2023-08-15T16:45:58.268Z,4.53
2023-08-15T16:50:00.193Z,3.97
2023-08-15T16:54:01.374Z,4.27
2023-08-15T16:58:02.551Z,4.50
2023-08-15T17:02:03.655Z,4.97
2023-08-15T17:06:05.054Z,5.30
2023-08-15T17:10:06.659Z,4.93
2023-08-15T17:14:07.757Z,4.77
2023-08-15T17:18:08.965Z,3.90
2023-08-15T17:22:10.008Z,4.50
2023-08-15T17:26:11.310Z,4.00
2023-08-15T17:30:13.369Z,4.77
2023-08-15T17:34:14.424Z,4.63
2023-08-15T17:38:15.621Z,4.33
2023-08-15T17:42:17.280Z,3.70
2023-08-15T17:46:18.531Z,3.67
2023-08-15T17:50:19.772Z,3.80
2023-08-15T17:54:20.982Z,4.23
2023-08-15T17:58:22.352Z,3.10
2023-08-15T18:02:23.718Z,3.77
2023-08-15T18:06:25.020Z,3.50
2023-08-15T18:10:26.352Z,9.30
2023-08-15T18:14:30.897Z,3.97
2023-08-15T18:18:32.106Z,3.43
2023-08-15T18:22:33.265Z,4.23
2023-08-15T18:26:34.514Z,3.30
2023-08-15T18:30:35.624Z,3.27
2023-08-15T18:34:37.236Z,3.47
2023-08-15T18:38:39.139Z,6.83
2023-08-15T18:42:40.154Z,4.43
2023-08-15T18:46:42.798Z,3.77
2023-08-15T18:50:44.444Z,4.20
2023-08-15T18:54:45.497Z,4.70
2023-08-15T18:58:46.714Z,5.60
2023-08-15T19:02:48.174Z,6.07
2023-08-15T19:06:49.243Z,7.08
2023-08-15T19:10:50.276Z,6.40
2023-08-15T19:14:51.345Z,6.93
2023-08-15T19:18:52.388Z,6.43
2023-08-15T19:22:53.849Z,5.67
2023-08-15T19:26:55.084Z,6.30
2023-08-15T19:30:56.534Z,7.30
2023-08-15T19:34:57.625Z,7.70
2023-08-15T19:38:58.875Z,7.57
2023-08-15T19:43:00.061Z,8.20
2023-08-15T19:47:01.569Z,9.33
2023-08-15T19:51:02.963Z,8.07
2023-08-15T19:55:04.805Z,8.33
2023-08-15T19:59:05.778Z,12.97
2023-08-15T20:03:07.195Z,7.93
2023-08-15T20:07:08.420Z,8.97
2023-08-15T20:11:09.446Z,8.77
2023-08-15T20:15:11.122Z,6.73
2023-08-15T20:19:12.293Z,10.17
2023-08-15T20:23:13.323Z,9.50
2023-08-15T20:27:15.206Z,9.73
2023-08-15T20:31:17.064Z,8.93
2023-08-15T20:35:18.264Z,9.23
2023-08-15T20:39:19.941Z,9.17
2023-08-15T20:43:20.995Z,8.13
2023-08-15T20:47:22.087Z,10.77
2023-08-15T20:51:23.459Z,10.77
2023-08-15T20:55:24.611Z,9.80
2023-08-15T20:59:25.680Z,10.07
2023-08-15T21:03:26.680Z,12.67
2023-08-15T21:07:28.294Z,9.33
2023-08-15T21:11:29.287Z,8.77
2023-08-15T21:15:30.339Z,9.73
2023-08-15T21:19:31.403Z,9.53
2023-08-15T21:23:33.466Z,9.57
2023-08-15T21:27:34.837Z,9.73
2023-08-15T21:31:35.826Z,14.57
2023-08-15T21:35:36.989Z,9.60
2023-08-15T21:39:37.958Z,10.00
2023-08-15T21:43:39.226Z,9.27
2023-08-15T21:47:40.306Z,13.53
2023-08-15T21:51:41.488Z,11.87
2023-08-15T21:55:42.513Z,11.13
2023-08-15T21:59:43.841Z,12.70
2023-08-15T22:03:44.915Z,18.83
2023-08-15T22:07:46.080Z,9.20
2023-08-15T22:11:47.344Z,10.63
2023-08-15T22:15:48.374Z,10.10
2023-08-15T22:19:49.383Z,9.83
2023-08-15T22:23:50.619Z,10.63
2023-08-15T22:27:51.648Z,25.93
2023-08-15T22:31:53.247Z,17.40
2023-08-15T22:35:54.525Z,12.87
2023-08-15T22:39:55.927Z,12.23
2023-08-15T22:43:56.997Z,12.43
2023-08-15T22:47:58.136Z,12.13
2023-08-15T22:51:59.084Z,10.83
2023-08-15T22:56:00.995Z,12.90
2023-08-15T23:00:02.593Z,10.80
2023-08-15T23:04:04.105Z,10.27
2023-08-15T23:08:05.541Z,9.50
2023-08-15T23:12:07.592Z,8.13
2023-08-15T23:16:08.680Z,13.30
2023-08-15T23:20:11.074Z,11.10
2023-08-15T23:24:13.239Z,11.00
2023-08-15T23:28:14.302Z,12.30
2023-08-15T23:32:15.505Z,10.80
2023-08-15T23:36:16.710Z,11.77
2023-08-15T23:40:18.334Z,13.07
2023-08-15T23:44:19.648Z,10.87
2023-08-15T23:48:20.826Z,16.57
2023-08-15T23:52:22.020Z,13.60
2023-08-15T23:56:24.991Z,12.00
